sensor_id;sensor_type;location;lat;lon;timestamp;P1;durP1;ratioP1;P2;durP2;ratioP2
13718;SDS011;6931;51.100;17.068;2024-01-15T00:00:04;12.52;;;7.47;;
13718;SDS011;6931;51.100;17.068;2024-01-15T00:02:31;9.27;;;6.20;;
13718;SDS011;6931;51.100;17.068;2024-01-15T00:04:58;8.65;;;6.07;;
13718;SDS011;6931;51.100;17.068;2024-01-15T00:07:24;8.80;;;6.18;;
13718;SDS011;6931;51.100;17.068;2024-01-15T00:09:51;8.10;;;5.95;;
13718;SDS011;6931;51.100;17.068;2024-01-15T00:12:18;8.98;;;5.93;;
13718;SDS011;6931;51.100;17.068;2024-01-15T00:14:44;8.40;;;6.32;;
13718;SDS011;6931;51.100;17.068;2024-01-15T00:17:11;7.22;;;5.30;;
13718;SDS011;6931;51.100;17.068;2024-01-15T00:19:38;7.65;;;6.25;;
13718;SDS011;6931;51.100;17.068;2024-01-15T00:22:05;7.07;;;5.63;;
13718;SDS011;6931;51.100;17.068;2024-01-15T00:24:31;7.55;;;5.75;;
13718;SDS011;6931;51.100;17.068;2024-01-15T00:26:58;8.02;;;5.68;;
13718;SDS011;6931;51.100;17.068;2024-01-15T00:29:24;8.27;;;5.90;;
13718;SDS011;6931;51.100;17.068;2024-01-15T00:31:51;6.68;;;5.40;;
13718;SDS011;6931;51.100;17.068;2024-01-15T00:34:18;8.07;;;5.60;;
13718;SDS011;6931;51.100;17.068;2024-01-15T00:36:45;7.45;;;5.32;;
13718;SDS011;6931;51.100;17.068;2024-01-15T00:39:11;8.82;;;6.38;;
13718;SDS011;6931;51.100;17.068;2024-01-15T00:41:38;7.50;;;5.50;;
13718;SDS011;6931;51.100;17.068;2024-01-15T00:44:04;7.10;;;5.18;;
13718;SDS011;6931;51.100;17.068;2024-01-15T00:46:31;12.63;;;5.57;;
13718;SDS011;6931;51.100;17.068;2024-01-15T00:48:57;7.72;;;5.25;;
13718;SDS011;6931;51.100;17.068;2024-01-15T00:51:24;7.93;;;5.28;;
13718;SDS011;6931;51.100;17.068;2024-01-15T00:53:51;6.93;;;5.18;;
13718;SDS011;6931;51.100;17.068;2024-01-15T00:56:17;7.85;;;5.10;;
13718;SDS011;6931;51.100;17.068;2024-01-15T00:58:44;8.10;;;5.90;;
13718;SDS011;6931;51.100;17.068;2024-01-15T01:01:10;7.90;;;5.88;;
13718;SDS011;6931;51.100;17.068;2024-01-15T01:03:37;7.25;;;5.63;;
13718;SDS011;6931;51.100;17.068;2024-01-15T01:06:04;7.38;;;5.40;;
13718;SDS011;6931;51.100;17.068;2024-01-15T01:08:30;5.15;;;3.38;;
13718;SDS011;6931;51.100;17.068;2024-01-15T01:10:57;8.60;;;5.90;;
13718;SDS011;6931;51.100;17.068;2024-01-15T01:13:23;8.75;;;5.47;;
13718;SDS011;6931;51.100;17.068;2024-01-15T01:15:50;6.05;;;3.90;;
13718;SDS011;6931;51.100;17.068;2024-01-15T01:18:17;8.23;;;5.70;;
13718;SDS011;6931;51.100;17.068;2024-01-15T01:20:43;8.50;;;5.35;;
13718;SDS011;6931;51.100;17.068;2024-01-15T01:23:10;7.80;;;5.78;;
13718;SDS011;6931;51.100;17.068;2024-01-15T01:25:36;9.02;;;6.43;;
13718;SDS011;6931;51.100;17.068;2024-01-15T01:28:03;10.60;;;6.25;;
13718;SDS011;6931;51.100;17.068;2024-01-15T01:30:30;9.85;;;6.25;;
13718;SDS011;6931;51.100;17.068;2024-01-15T01:32:56;9.63;;;6.22;;
13718;SDS011;6931;51.100;17.068;2024-01-15T01:35:23;7.90;;;5.60;;
13718;SDS011;6931;51.100;17.068;2024-01-15T01:37:49;7.70;;;5.13;;
13718;SDS011;6931;51.100;17.068;2024-01-15T01:40:16;8.23;;;5.20;;
13718;SDS011;6931;51.100;17.068;2024-01-15T01:42:42;6.88;;;4.43;;
13718;SDS011;6931;51.100;17.068;2024-01-15T01:45:09;8.32;;;5.65;;
13718;SDS011;6931;51.100;17.068;2024-01-15T01:47:36;10.98;;;6.07;;
13718;SDS011;6931;51.100;17.068;2024-01-15T01:50:03;9.88;;;6.53;;
13718;SDS011;6931;51.100;17.068;2024-01-15T01:52:31;8.82;;;6.40;;
13718;SDS011;6931;51.100;17.068;2024-01-15T01:54:58;8.60;;;6.15;;
13718;SDS011;6931;51.100;17.068;2024-01-15T01:57:28;8.48;;;6.40;;
13718;SDS011;6931;51.100;17.068;2024-01-15T01:59:57;9.30;;;6.93;;
13718;SDS011;6931;51.100;17.068;2024-01-15T02:02:25;8.63;;;6.13;;
13718;SDS011;6931;51.100;17.068;2024-01-15T02:04:52;7.95;;;5.45;;
13718;SDS011;6931;51.100;17.068;2024-01-15T02:07:18;7.85;;;5.43;;
13718;SDS011;6931;51.100;17.068;2024-01-15T02:09:45;10.15;;;6.95;;
13718;SDS011;6931;51.100;17.068;2024-01-15T02:12:12;6.28;;;4.70;;
13718;SDS011;6931;51.100;17.068;2024-01-15T02:14:39;9.10;;;6.75;;
13718;SDS011;6931;51.100;17.068;2024-01-15T02:17:05;8.57;;;6.78;;
13718;SDS011;6931;51.100;17.068;2024-01-15T02:19:32;9.90;;;7.75;;
13718;SDS011;6931;51.100;17.068;2024-01-15T02:21:59;10.23;;;6.80;;
13718;SDS011;6931;51.100;17.068;2024-01-15T02:24:25;10.40;;;7.80;;
13718;SDS011;6931;51.100;17.068;2024-01-15T02:26:52;9.82;;;7.43;;
13718;SDS011;6931;51.100;17.068;2024-01-15T02:29:19;11.48;;;7.60;;
13718;SDS011;6931;51.100;17.068;2024-01-15T02:31:45;11.38;;;7.57;;
13718;SDS011;6931;51.100;17.068;2024-01-15T02:34:12;9.80;;;7.13;;
13718;SDS011;6931;51.100;17.068;2024-01-15T02:36:39;10.18;;;7.38;;
13718;SDS011;6931;51.100;17.068;2024-01-15T02:39:05;8.70;;;7.00;;
13718;SDS011;6931;51.100;17.068;2024-01-15T02:41:32;6.90;;;5.70;;
13718;SDS011;6931;51.100;17.068;2024-01-15T02:43:59;7.85;;;6.10;;
13718;SDS011;6931;51.100;17.068;2024-01-15T02:46:25;8.35;;;6.10;;
13718;SDS011;6931;51.100;17.068;2024-01-15T02:48:52;9.45;;;7.10;;
13718;SDS011;6931;51.100;17.068;2024-01-15T02:51:18;9.20;;;6.63;;
13718;SDS011;6931;51.100;17.068;2024-01-15T02:53:45;9.13;;;6.72;;
13718;SDS011;6931;51.100;17.068;2024-01-15T02:56:12;8.73;;;6.93;;
13718;SDS011;6931;51.100;17.068;2024-01-15T02:58:38;12.90;;;7.50;;
13718;SDS011;6931;51.100;17.068;2024-01-15T03:01:05;9.40;;;7.05;;
13718;SDS011;6931;51.100;17.068;2024-01-15T03:03:32;8.80;;;6.32;;
13718;SDS011;6931;51.100;17.068;2024-01-15T03:06:01;7.38;;;5.95;;
13718;SDS011;6931;51.100;17.068;2024-01-15T03:08:27;8.35;;;6.30;;
13718;SDS011;6931;51.100;17.068;2024-01-15T03:10:55;7.18;;;5.38;;
13718;SDS011;6931;51.100;17.068;2024-01-15T03:13:21;7.55;;;5.75;;
13718;SDS011;6931;51.100;17.068;2024-01-15T03:15:48;8.80;;;6.07;;
13718;SDS011;6931;51.100;17.068;2024-01-15T03:18:15;9.45;;;6.68;;
13718;SDS011;6931;51.100;17.068;2024-01-15T03:20:41;7.95;;;5.90;;
13718;SDS011;6931;51.100;17.068;2024-01-15T03:23:08;9.10;;;6.13;;
13718;SDS011;6931;51.100;17.068;2024-01-15T03:25:34;3.92;;;3.13;;
13718;SDS011;6931;51.100;17.068;2024-01-15T03:28:01;6.50;;;5.50;;
13718;SDS011;6931;51.100;17.068;2024-01-15T03:30:28;6.78;;;5.03;;
13718;SDS011;6931;51.100;17.068;2024-01-15T03:32:54;5.03;;;4.30;;
13718;SDS011;6931;51.100;17.068;2024-01-15T03:35:21;5.22;;;3.88;;
13718;SDS011;6931;51.100;17.068;2024-01-15T03:37:48;6.97;;;5.10;;
13718;SDS011;6931;51.100;17.068;2024-01-15T03:40:14;7.70;;;4.82;;
13718;SDS011;6931;51.100;17.068;2024-01-15T03:42:45;6.43;;;4.47;;
13718;SDS011;6931;51.100;17.068;2024-01-15T03:45:11;7.65;;;4.88;;
13718;SDS011;6931;51.100;17.068;2024-01-15T03:47:38;6.40;;;4.85;;
13718;SDS011;6931;51.100;17.068;2024-01-15T03:50:05;6.82;;;5.15;;
13718;SDS011;6931;51.100;17.068;2024-01-15T03:52:32;5.00;;;3.67;;
13718;SDS011;6931;51.100;17.068;2024-01-15T03:54:58;5.45;;;4.18;;
13718;SDS011;6931;51.100;17.068;2024-01-15T03:57:25;6.03;;;5.07;;
13718;SDS011;6931;51.100;17.068;2024-01-15T03:59:52;5.72;;;4.70;;
13718;SDS011;6931;51.100;17.068;2024-01-15T04:02:18;7.43;;;5.45;;
13718;SDS011;6931;51.100;17.068;2024-01-15T04:04:45;5.07;;;4.00;;
13718;SDS011;6931;51.100;17.068;2024-01-15T04:07:12;5.20;;;3.92;;
13718;SDS011;6931;51.100;17.068;2024-01-15T04:09:38;6.85;;;4.70;;
13718;SDS011;6931;51.100;17.068;2024-01-15T04:12:05;7.30;;;4.60;;
13718;SDS011;6931;51.100;17.068;2024-01-15T04:14:32;6.35;;;4.45;;
13718;SDS011;6931;51.100;17.068;2024-01-15T04:16:58;7.57;;;4.93;;
13718;SDS011;6931;51.100;17.068;2024-01-15T04:19:25;4.68;;;3.95;;
13718;SDS011;6931;51.100;17.068;2024-01-15T04:21:51;6.68;;;4.30;;
13718;SDS011;6931;51.100;17.068;2024-01-15T04:24:18;6.30;;;4.53;;
13718;SDS011;6931;51.100;17.068;2024-01-15T04:26:45;6.28;;;4.82;;
13718;SDS011;6931;51.100;17.068;2024-01-15T04:29:11;5.82;;;4.20;;
13718;SDS011;6931;51.100;17.068;2024-01-15T04:31:38;5.85;;;4.25;;
13718;SDS011;6931;51.100;17.068;2024-01-15T04:34:05;6.07;;;4.53;;
13718;SDS011;6931;51.100;17.068;2024-01-15T04:36:32;6.55;;;4.15;;
13718;SDS011;6931;51.100;17.068;2024-01-15T04:39:05;6.78;;;4.30;;
13718;SDS011;6931;51.100;17.068;2024-01-15T04:41:31;7.07;;;4.63;;
13718;SDS011;6931;51.100;17.068;2024-01-15T04:43:58;7.63;;;5.13;;
13718;SDS011;6931;51.100;17.068;2024-01-15T04:46:26;6.38;;;4.30;;
13718;SDS011;6931;51.100;17.068;2024-01-15T04:48:53;7.63;;;5.13;;
13718;SDS011;6931;51.100;17.068;2024-01-15T04:51:19;8.05;;;5.00;;
13718;SDS011;6931;51.100;17.068;2024-01-15T04:53:46;6.43;;;5.20;;
13718;SDS011;6931;51.100;17.068;2024-01-15T04:56:13;7.20;;;5.28;;
13718;SDS011;6931;51.100;17.068;2024-01-15T04:58:39;7.20;;;4.75;;
13718;SDS011;6931;51.100;17.068;2024-01-15T05:01:07;7.03;;;4.88;;
13718;SDS011;6931;51.100;17.068;2024-01-15T05:03:34;7.55;;;5.60;;
13718;SDS011;6931;51.100;17.068;2024-01-15T05:06:01;6.63;;;4.57;;
13718;SDS011;6931;51.100;17.068;2024-01-15T05:08:29;6.95;;;5.22;;
13718;SDS011;6931;51.100;17.068;2024-01-15T05:10:55;7.32;;;4.95;;
13718;SDS011;6931;51.100;17.068;2024-01-15T05:13:22;8.90;;;5.30;;
13718;SDS011;6931;51.100;17.068;2024-01-15T05:15:48;7.55;;;5.28;;
13718;SDS011;6931;51.100;17.068;2024-01-15T05:18:15;7.20;;;4.20;;
13718;SDS011;6931;51.100;17.068;2024-01-15T05:20:42;7.05;;;4.70;;
13718;SDS011;6931;51.100;17.068;2024-01-15T05:23:09;7.00;;;4.65;;
13718;SDS011;6931;51.100;17.068;2024-01-15T05:25:36;6.50;;;4.50;;
13718;SDS011;6931;51.100;17.068;2024-01-15T05:28:02;5.72;;;4.28;;
13718;SDS011;6931;51.100;17.068;2024-01-15T05:30:29;5.85;;;3.97;;
13718;SDS011;6931;51.100;17.068;2024-01-15T05:32:56;5.05;;;2.97;;
13718;SDS011;6931;51.100;17.068;2024-01-15T05:35:23;8.35;;;3.50;;
13718;SDS011;6931;51.100;17.068;2024-01-15T05:37:50;6.10;;;3.80;;
13718;SDS011;6931;51.100;17.068;2024-01-15T05:40:16;4.93;;;3.38;;
13718;SDS011;6931;51.100;17.068;2024-01-15T05:42:43;4.10;;;2.83;;
13718;SDS011;6931;51.100;17.068;2024-01-15T05:45:10;2.97;;;2.60;;
13718;SDS011;6931;51.100;17.068;2024-01-15T05:47:36;5.13;;;3.83;;
13718;SDS011;6931;51.100;17.068;2024-01-15T05:50:03;5.53;;;3.90;;
13718;SDS011;6931;51.100;17.068;2024-01-15T05:52:31;5.78;;;4.20;;
13718;SDS011;6931;51.100;17.068;2024-01-15T05:54:58;4.68;;;3.88;;
13718;SDS011;6931;51.100;17.068;2024-01-15T05:57:24;5.25;;;4.45;;
13718;SDS011;6931;51.100;17.068;2024-01-15T05:59:51;5.68;;;4.25;;
13718;SDS011;6931;51.100;17.068;2024-01-15T06:02:18;4.78;;;3.67;;
13718;SDS011;6931;51.100;17.068;2024-01-15T06:04:44;6.22;;;3.80;;
13718;SDS011;6931;51.100;17.068;2024-01-15T06:07:11;3.33;;;2.80;;
13718;SDS011;6931;51.100;17.068;2024-01-15T06:09:38;4.40;;;3.35;;
13718;SDS011;6931;51.100;17.068;2024-01-15T06:12:05;4.85;;;3.85;;
13718;SDS011;6931;51.100;17.068;2024-01-15T06:14:33;6.05;;;4.25;;
13718;SDS011;6931;51.100;17.068;2024-01-15T06:16:59;6.88;;;4.60;;
13718;SDS011;6931;51.100;17.068;2024-01-15T06:19:26;5.40;;;3.83;;
13718;SDS011;6931;51.100;17.068;2024-01-15T06:21:53;4.53;;;2.85;;
13718;SDS011;6931;51.100;17.068;2024-01-15T06:24:20;7.20;;;4.43;;
13718;SDS011;6931;51.100;17.068;2024-01-15T06:26:46;5.75;;;4.03;;
13718;SDS011;6931;51.100;17.068;2024-01-15T06:29:13;5.90;;;4.40;;
13718;SDS011;6931;51.100;17.068;2024-01-15T06:31:40;4.40;;;3.30;;
13718;SDS011;6931;51.100;17.068;2024-01-15T06:34:07;7.18;;;4.03;;
13718;SDS011;6931;51.100;17.068;2024-01-15T06:36:34;6.00;;;3.80;;
13718;SDS011;6931;51.100;17.068;2024-01-15T06:39:00;5.50;;;4.13;;
13718;SDS011;6931;51.100;17.068;2024-01-15T06:41:27;6.45;;;4.53;;
13718;SDS011;6931;51.100;17.068;2024-01-15T06:43:54;6.50;;;4.45;;
13718;SDS011;6931;51.100;17.068;2024-01-15T06:46:22;5.53;;;4.25;;
13718;SDS011;6931;51.100;17.068;2024-01-15T06:48:49;5.95;;;4.40;;
13718;SDS011;6931;51.100;17.068;2024-01-15T06:51:16;5.45;;;3.97;;
13718;SDS011;6931;51.100;17.068;2024-01-15T06:53:43;5.43;;;3.85;;
13718;SDS011;6931;51.100;17.068;2024-01-15T06:56:09;7.38;;;4.28;;
13718;SDS011;6931;51.100;17.068;2024-01-15T06:58:36;7.15;;;4.20;;
13718;SDS011;6931;51.100;17.068;2024-01-15T07:01:03;5.30;;;3.90;;
13718;SDS011;6931;51.100;17.068;2024-01-15T07:03:31;5.85;;;4.28;;
13718;SDS011;6931;51.100;17.068;2024-01-15T07:05:58;7.40;;;4.00;;
13718;SDS011;6931;51.100;17.068;2024-01-15T07:08:25;4.82;;;4.03;;
13718;SDS011;6931;51.100;17.068;2024-01-15T07:10:51;5.93;;;4.25;;
13718;SDS011;6931;51.100;17.068;2024-01-15T07:13:18;5.47;;;4.18;;
13718;SDS011;6931;51.100;17.068;2024-01-15T07:15:44;6.85;;;4.60;;
13718;SDS011;6931;51.100;17.068;2024-01-15T07:18:11;8.05;;;4.95;;
13718;SDS011;6931;51.100;17.068;2024-01-15T07:20:38;6.07;;;4.03;;
13718;SDS011;6931;51.100;17.068;2024-01-15T07:23:05;7.57;;;4.50;;
13718;SDS011;6931;51.100;17.068;2024-01-15T07:25:31;7.72;;;4.55;;
13718;SDS011;6931;51.100;17.068;2024-01-15T07:27:59;7.80;;;5.18;;
13718;SDS011;6931;51.100;17.068;2024-01-15T07:30:25;6.68;;;4.60;;
13718;SDS011;6931;51.100;17.068;2024-01-15T07:32:52;7.35;;;4.25;;
13718;SDS011;6931;51.100;17.068;2024-01-15T07:35:19;6.32;;;3.97;;
13718;SDS011;6931;51.100;17.068;2024-01-15T07:37:46;6.85;;;4.43;;
13718;SDS011;6931;51.100;17.068;2024-01-15T07:40:12;6.88;;;4.22;;
13718;SDS011;6931;51.100;17.068;2024-01-15T07:42:39;7.05;;;4.63;;
13718;SDS011;6931;51.100;17.068;2024-01-15T07:45:06;5.50;;;3.80;;
13718;SDS011;6931;51.100;17.068;2024-01-15T07:47:33;5.22;;;3.28;;
13718;SDS011;6931;51.100;17.068;2024-01-15T07:49:59;8.07;;;3.95;;
13718;SDS011;6931;51.100;17.068;2024-01-15T07:52:31;3.92;;;2.88;;
13718;SDS011;6931;51.100;17.068;2024-01-15T07:54:58;5.20;;;3.78;;
13718;SDS011;6931;51.100;17.068;2024-01-15T07:57:30;7.05;;;3.95;;
13718;SDS011;6931;51.100;17.068;2024-01-15T07:59:56;5.35;;;3.90;;
13718;SDS011;6931;51.100;17.068;2024-01-15T08:02:23;5.78;;;3.70;;
13718;SDS011;6931;51.100;17.068;2024-01-15T08:04:50;5.22;;;3.53;;
13718;SDS011;6931;51.100;17.068;2024-01-15T08:07:17;3.47;;;1.88;;
13718;SDS011;6931;51.100;17.068;2024-01-15T08:09:44;5.60;;;3.70;;
13718;SDS011;6931;51.100;17.068;2024-01-15T08:12:13;5.20;;;3.42;;
13718;SDS011;6931;51.100;17.068;2024-01-15T08:14:40;6.10;;;3.58;;
13718;SDS011;6931;51.100;17.068;2024-01-15T08:17:06;5.45;;;3.95;;
13718;SDS011;6931;51.100;17.068;2024-01-15T08:19:33;7.05;;;4.32;;
13718;SDS011;6931;51.100;17.068;2024-01-15T08:22:00;3.08;;;2.17;;
13718;SDS011;6931;51.100;17.068;2024-01-15T08:24:26;6.30;;;3.65;;
13718;SDS011;6931;51.100;17.068;2024-01-15T08:26:53;7.22;;;3.90;;
13718;SDS011;6931;51.100;17.068;2024-01-15T08:29:20;7.28;;;3.67;;
13718;SDS011;6931;51.100;17.068;2024-01-15T08:31:47;8.82;;;3.75;;
13718;SDS011;6931;51.100;17.068;2024-01-15T08:34:14;5.35;;;3.10;;
13718;SDS011;6931;51.100;17.068;2024-01-15T08:36:41;7.82;;;3.40;;
13718;SDS011;6931;51.100;17.068;2024-01-15T08:39:08;7.72;;;3.13;;
13718;SDS011;6931;51.100;17.068;2024-01-15T08:41:35;5.32;;;2.80;;
13718;SDS011;6931;51.100;17.068;2024-01-15T08:44:02;5.82;;;2.83;;
13718;SDS011;6931;51.100;17.068;2024-01-15T08:46:31;4.97;;;3.65;;
13718;SDS011;6931;51.100;17.068;2024-01-15T08:48:58;4.85;;;3.10;;
13718;SDS011;6931;51.100;17.068;2024-01-15T08:51:24;5.05;;;3.03;;
13718;SDS011;6931;51.100;17.068;2024-01-15T08:53:51;5.22;;;2.95;;
13718;SDS011;6931;51.100;17.068;2024-01-15T08:56:18;4.80;;;2.97;;
13718;SDS011;6931;51.100;17.068;2024-01-15T08:58:44;3.55;;;2.55;;
13718;SDS011;6931;51.100;17.068;2024-01-15T09:01:12;5.10;;;3.55;;
13718;SDS011;6931;51.100;17.068;2024-01-15T09:03:39;2.97;;;2.17;;
13718;SDS011;6931;51.100;17.068;2024-01-15T09:06:09;4.97;;;2.58;;
13718;SDS011;6931;51.100;17.068;2024-01-15T09:08:36;4.50;;;2.83;;
13718;SDS011;6931;51.100;17.068;2024-01-15T09:11:03;3.92;;;2.60;;
13718;SDS011;6931;51.100;17.068;2024-01-15T09:13:30;5.72;;;2.80;;
13718;SDS011;6931;51.100;17.068;2024-01-15T09:15:57;2.75;;;2.17;;
13718;SDS011;6931;51.100;17.068;2024-01-15T09:18:24;4.68;;;2.65;;
13718;SDS011;6931;51.100;17.068;2024-01-15T09:20:51;4.15;;;2.70;;
13718;SDS011;6931;51.100;17.068;2024-01-15T09:23:18;4.05;;;2.90;;
13718;SDS011;6931;51.100;17.068;2024-01-15T09:25:45;5.10;;;2.35;;
13718;SDS011;6931;51.100;17.068;2024-01-15T09:28:11;3.83;;;2.65;;
13718;SDS011;6931;51.100;17.068;2024-01-15T09:30:38;5.55;;;2.83;;
13718;SDS011;6931;51.100;17.068;2024-01-15T09:33:05;7.10;;;3.58;;
13718;SDS011;6931;51.100;17.068;2024-01-15T09:35:31;4.82;;;3.13;;
13718;SDS011;6931;51.100;17.068;2024-01-15T09:37:58;2.72;;;1.55;;
13718;SDS011;6931;51.100;17.068;2024-01-15T09:40:25;3.47;;;2.60;;
13718;SDS011;6931;51.100;17.068;2024-01-15T09:42:58;4.05;;;2.42;;
13718;SDS011;6931;51.100;17.068;2024-01-15T09:45:25;5.72;;;2.42;;
13718;SDS011;6931;51.100;17.068;2024-01-15T09:47:52;3.05;;;1.63;;
13718;SDS011;6931;51.100;17.068;2024-01-15T09:50:19;3.97;;;2.40;;
13718;SDS011;6931;51.100;17.068;2024-01-15T09:52:46;4.80;;;2.55;;
13718;SDS011;6931;51.100;17.068;2024-01-15T09:55:14;4.80;;;2.40;;
13718;SDS011;6931;51.100;17.068;2024-01-15T09:57:43;4.97;;;2.55;;
13718;SDS011;6931;51.100;17.068;2024-01-15T10:00:10;4.65;;;1.95;;
13718;SDS011;6931;51.100;17.068;2024-01-15T10:02:38;5.57;;;2.45;;
13718;SDS011;6931;51.100;17.068;2024-01-15T10:05:04;5.32;;;2.42;;
13718;SDS011;6931;51.100;17.068;2024-01-15T10:07:33;16.92;;;3.38;;
13718;SDS011;6931;51.100;17.068;2024-01-15T10:10:02;6.28;;;3.10;;
13718;SDS011;6931;51.100;17.068;2024-01-15T10:12:30;5.53;;;1.95;;
13718;SDS011;6931;51.100;17.068;2024-01-15T10:14:57;3.50;;;2.08;;
13718;SDS011;6931;51.100;17.068;2024-01-15T10:17:24;4.38;;;2.10;;
13718;SDS011;6931;51.100;17.068;2024-01-15T10:19:53;5.60;;;3.20;;
13718;SDS011;6931;51.100;17.068;2024-01-15T10:22:20;5.93;;;3.72;;
13718;SDS011;6931;51.100;17.068;2024-01-15T10:24:46;5.28;;;2.72;;
13718;SDS011;6931;51.100;17.068;2024-01-15T10:27:15;4.45;;;2.22;;
13718;SDS011;6931;51.100;17.068;2024-01-15T10:29:42;5.95;;;3.47;;
13718;SDS011;6931;51.100;17.068;2024-01-15T10:32:10;4.35;;;2.35;;
13718;SDS011;6931;51.100;17.068;2024-01-15T10:34:38;6.28;;;3.03;;
13718;SDS011;6931;51.100;17.068;2024-01-15T10:37:10;5.35;;;3.17;;
13718;SDS011;6931;51.100;17.068;2024-01-15T10:39:37;5.45;;;2.97;;
13718;SDS011;6931;51.100;17.068;2024-01-15T10:42:04;5.30;;;2.70;;
13718;SDS011;6931;51.100;17.068;2024-01-15T10:44:33;6.28;;;3.08;;
13718;SDS011;6931;51.100;17.068;2024-01-15T10:47:01;5.68;;;3.00;;
13718;SDS011;6931;51.100;17.068;2024-01-15T10:49:27;4.53;;;2.63;;
13718;SDS011;6931;51.100;17.068;2024-01-15T10:51:59;3.45;;;2.30;;
13718;SDS011;6931;51.100;17.068;2024-01-15T10:54:27;5.10;;;2.53;;
13718;SDS011;6931;51.100;17.068;2024-01-15T10:56:55;4.43;;;2.50;;
13718;SDS011;6931;51.100;17.068;2024-01-15T10:59:23;4.20;;;2.42;;
13718;SDS011;6931;51.100;17.068;2024-01-15T11:01:50;9.32;;;3.10;;
13718;SDS011;6931;51.100;17.068;2024-01-15T11:04:24;6.78;;;2.50;;
13718;SDS011;6931;51.100;17.068;2024-01-15T11:06:55;6.70;;;2.67;;
13718;SDS011;6931;51.100;17.068;2024-01-15T11:09:23;4.53;;;2.40;;
13718;SDS011;6931;51.100;17.068;2024-01-15T11:11:52;3.80;;;2.30;;
13718;SDS011;6931;51.100;17.068;2024-01-15T11:17:05;5.68;;;2.15;;
13718;SDS011;6931;51.100;17.068;2024-01-15T11:19:42;2.90;;;1.92;;
13718;SDS011;6931;51.100;17.068;2024-01-15T11:24:55;5.57;;;2.30;;
13718;SDS011;6931;51.100;17.068;2024-01-15T11:27:42;3.78;;;2.22;;
13718;SDS011;6931;51.100;17.068;2024-01-15T11:30:10;4.72;;;2.30;;
13718;SDS011;6931;51.100;17.068;2024-01-15T11:32:38;3.28;;;1.58;;
13718;SDS011;6931;51.100;17.068;2024-01-15T11:35:09;2.78;;;2.08;;
13718;SDS011;6931;51.100;17.068;2024-01-15T11:43:00;3.88;;;2.10;;
13718;SDS011;6931;51.100;17.068;2024-01-15T11:45:27;6.75;;;3.08;;
13718;SDS011;6931;51.100;17.068;2024-01-15T11:50:42;5.55;;;2.70;;
13718;SDS011;6931;51.100;17.068;2024-01-15T11:56:14;5.03;;;2.60;;
13718;SDS011;6931;51.100;17.068;2024-01-15T11:58:43;5.20;;;2.47;;
13718;SDS011;6931;51.100;17.068;2024-01-15T12:01:10;6.13;;;1.70;;
13718;SDS011;6931;51.100;17.068;2024-01-15T12:03:37;7.78;;;2.80;;
13718;SDS011;6931;51.100;17.068;2024-01-15T12:06:06;8.13;;;2.50;;
13718;SDS011;6931;51.100;17.068;2024-01-15T12:08:34;5.53;;;2.97;;
13718;SDS011;6931;51.100;17.068;2024-01-15T12:11:01;3.38;;;2.33;;
13718;SDS011;6931;51.100;17.068;2024-01-15T12:13:35;7.68;;;3.40;;
13718;SDS011;6931;51.100;17.068;2024-01-15T12:16:02;5.45;;;3.63;;
13718;SDS011;6931;51.100;17.068;2024-01-15T12:18:30;6.35;;;3.17;;
13718;SDS011;6931;51.100;17.068;2024-01-15T12:20:57;5.60;;;2.90;;
13718;SDS011;6931;51.100;17.068;2024-01-15T12:23:24;5.03;;;2.53;;
13718;SDS011;6931;51.100;17.068;2024-01-15T12:25:51;4.60;;;2.50;;
13718;SDS011;6931;51.100;17.068;2024-01-15T12:28:18;5.90;;;3.25;;
13718;SDS011;6931;51.100;17.068;2024-01-15T12:30:46;6.90;;;3.25;;
13718;SDS011;6931;51.100;17.068;2024-01-15T12:33:17;5.00;;;2.58;;
13718;SDS011;6931;51.100;17.068;2024-01-15T12:35:45;6.22;;;2.65;;
13718;SDS011;6931;51.100;17.068;2024-01-15T12:38:13;4.38;;;2.65;;
13718;SDS011;6931;51.100;17.068;2024-01-15T12:40:40;6.20;;;3.30;;
13718;SDS011;6931;51.100;17.068;2024-01-15T12:43:12;3.42;;;1.70;;
13718;SDS011;6931;51.100;17.068;2024-01-15T12:45:40;2.47;;;1.70;;
13718;SDS011;6931;51.100;17.068;2024-01-15T12:48:07;2.83;;;2.15;;
13718;SDS011;6931;51.100;17.068;2024-01-15T12:50:33;6.43;;;2.65;;
13718;SDS011;6931;51.100;17.068;2024-01-15T12:53:02;7.63;;;3.88;;
13718;SDS011;6931;51.100;17.068;2024-01-15T12:55:28;7.97;;;2.85;;
13718;SDS011;6931;51.100;17.068;2024-01-15T12:57:55;5.40;;;3.15;;
13718;SDS011;6931;51.100;17.068;2024-01-15T13:00:22;3.88;;;2.30;;
13718;SDS011;6931;51.100;17.068;2024-01-15T13:02:50;4.60;;;2.65;;
13718;SDS011;6931;51.100;17.068;2024-01-15T13:05:17;4.68;;;2.13;;
13718;SDS011;6931;51.100;17.068;2024-01-15T13:07:46;3.17;;;1.90;;
13718;SDS011;6931;51.100;17.068;2024-01-15T13:10:13;4.90;;;2.83;;
13718;SDS011;6931;51.100;17.068;2024-01-15T13:12:40;4.30;;;2.25;;
13718;SDS011;6931;51.100;17.068;2024-01-15T13:15:08;4.88;;;2.45;;
13718;SDS011;6931;51.100;17.068;2024-01-15T13:17:40;5.18;;;2.85;;
13718;SDS011;6931;51.100;17.068;2024-01-15T13:20:07;4.70;;;2.05;;
13718;SDS011;6931;51.100;17.068;2024-01-15T13:22:35;6.07;;;3.33;;
13718;SDS011;6931;51.100;17.068;2024-01-15T13:25:06;3.20;;;2.05;;
13718;SDS011;6931;51.100;17.068;2024-01-15T13:27:34;4.00;;;2.13;;
13718;SDS011;6931;51.100;17.068;2024-01-15T13:30:02;6.22;;;3.05;;
13718;SDS011;6931;51.100;17.068;2024-01-15T13:32:29;5.55;;;3.03;;
13718;SDS011;6931;51.100;17.068;2024-01-15T13:34:56;2.45;;;1.50;;
13718;SDS011;6931;51.100;17.068;2024-01-15T13:37:26;6.45;;;2.78;;
13718;SDS011;6931;51.100;17.068;2024-01-15T13:39:54;6.75;;;3.10;;
13718;SDS011;6931;51.100;17.068;2024-01-15T13:42:20;4.00;;;1.80;;
13718;SDS011;6931;51.100;17.068;2024-01-15T13:44:50;5.97;;;2.72;;
13718;SDS011;6931;51.100;17.068;2024-01-15T13:47:17;5.93;;;3.20;;
13718;SDS011;6931;51.100;17.068;2024-01-15T13:49:44;4.47;;;2.78;;
13718;SDS011;6931;51.100;17.068;2024-01-15T13:52:11;6.97;;;3.10;;
13718;SDS011;6931;51.100;17.068;2024-01-15T13:54:39;2.90;;;1.40;;
13718;SDS011;6931;51.100;17.068;2024-01-15T13:57:16;5.07;;;3.17;;
13718;SDS011;6931;51.100;17.068;2024-01-15T13:59:44;2.97;;;1.58;;
13718;SDS011;6931;51.100;17.068;2024-01-15T14:02:11;5.03;;;2.58;;
13718;SDS011;6931;51.100;17.068;2024-01-15T14:04:45;6.32;;;2.67;;
13718;SDS011;6931;51.100;17.068;2024-01-15T14:07:12;7.45;;;3.42;;
13718;SDS011;6931;51.100;17.068;2024-01-15T14:09:39;6.20;;;3.03;;
13718;SDS011;6931;51.100;17.068;2024-01-15T14:12:06;8.45;;;3.58;;
13718;SDS011;6931;51.100;17.068;2024-01-15T14:14:32;3.38;;;2.47;;
13718;SDS011;6931;51.100;17.068;2024-01-15T14:17:00;5.50;;;2.95;;
13718;SDS011;6931;51.100;17.068;2024-01-15T14:19:26;7.30;;;2.92;;
13718;SDS011;6931;51.100;17.068;2024-01-15T14:21:54;6.30;;;2.47;;
13718;SDS011;6931;51.100;17.068;2024-01-15T14:24:21;5.50;;;2.50;;
13718;SDS011;6931;51.100;17.068;2024-01-15T14:26:48;5.63;;;2.88;;
13718;SDS011;6931;51.100;17.068;2024-01-15T14:29:15;5.45;;;2.90;;
13718;SDS011;6931;51.100;17.068;2024-01-15T14:31:41;3.65;;;2.55;;
13718;SDS011;6931;51.100;17.068;2024-01-15T14:34:08;5.65;;;2.22;;
13718;SDS011;6931;51.100;17.068;2024-01-15T14:36:35;4.63;;;2.80;;
13718;SDS011;6931;51.100;17.068;2024-01-15T14:39:01;4.10;;;2.55;;
13718;SDS011;6931;51.100;17.068;2024-01-15T14:41:29;5.82;;;3.15;;
13718;SDS011;6931;51.100;17.068;2024-01-15T14:43:56;7.75;;;3.78;;
13718;SDS011;6931;51.100;17.068;2024-01-15T14:46:23;7.25;;;3.08;;
13718;SDS011;6931;51.100;17.068;2024-01-15T14:48:50;9.32;;;4.53;;
13718;SDS011;6931;51.100;17.068;2024-01-15T14:51:17;7.78;;;4.57;;
13718;SDS011;6931;51.100;17.068;2024-01-15T14:53:43;9.00;;;4.75;;
13718;SDS011;6931;51.100;17.068;2024-01-15T14:56:10;10.35;;;5.55;;
13718;SDS011;6931;51.100;17.068;2024-01-15T14:58:39;10.07;;;5.82;;
13718;SDS011;6931;51.100;17.068;2024-01-15T15:01:06;10.07;;;4.75;;
13718;SDS011;6931;51.100;17.068;2024-01-15T15:03:32;7.90;;;5.00;;